Seagoville's Hourly Summary for Monday, May 14, 2018
Hour Temp
(f)
RH
(%)
Solar Rad.
(MJ/m2)
Rainfall
(in)
Wind
(mph)
5/14/2018 12:00 AM 75 73 0 0 4.88
5/14/2018 1:00 AM 75 76 0 0 5.53
5/14/2018 2:00 AM 75 77 0 0 5.1
5/14/2018 3:00 AM 73 81 0 0 2.57
5/14/2018 4:00 AM 72 87 0 0 3.33
5/14/2018 5:00 AM 70 89 0 0 3.08
5/14/2018 6:00 AM 70 92 0.04 0 2.56
5/14/2018 7:00 AM 70 89 0.43 0 3.23
5/14/2018 8:00 AM 74 80 0.98 0 7.05
5/14/2018 9:00 AM 76 75 1.26 0 9.19
5/14/2018 10:00 AM 78 69 1.92 0 9.41
5/14/2018 11:00 AM 80 63 1.75 0 8.82
5/14/2018 12:00 PM 81 59 2.14 0 8.34
5/14/2018 1:00 PM 83 52 2.64 0 9.24
5/14/2018 2:00 PM 84 51 2.39 0 8.63
5/14/2018 3:00 PM 85 52 2.04 0 8.62
5/14/2018 4:00 PM 85 52 1.75 0 8.28
5/14/2018 5:00 PM 85 51 1.43 0 7.2
5/14/2018 6:00 PM 84 53 0.75 0 6.52
5/14/2018 7:00 PM 81 63 0.19 0 5.2
5/14/2018 8:00 PM 78 71 0 0 3.14
5/14/2018 9:00 PM 77 74 0 0 3.04
5/14/2018 10:00 PM 77 73 0 0 3.97
5/14/2018 11:00 PM 76 75 0 0 5.39
Data Summary 77 69 19.71 0.00 5.93